createdAt,value
2018-09-19T00:00:22.256Z,17.10
2018-09-19T00:05:03.148Z,17.00
2018-09-19T00:09:44.189Z,16.90
2018-09-19T00:14:24.209Z,16.90
2018-09-19T00:19:03.955Z,16.80
2018-09-19T00:23:44.733Z,16.80
2018-09-19T00:28:24.665Z,16.70
2018-09-19T00:33:05.341Z,16.60
2018-09-19T00:37:46.288Z,16.50
2018-09-19T00:42:26.249Z,16.30
2018-09-19T00:47:06.117Z,16.20
2018-09-19T00:51:45.808Z,16.00
2018-09-19T00:56:25.943Z,16.00
2018-09-19T01:01:05.889Z,16.00
2018-09-19T01:05:45.649Z,16.00
2018-09-19T01:10:25.619Z,15.90
2018-09-19T01:15:06.708Z,15.80
2018-09-19T01:19:47.552Z,15.70
2018-09-19T01:24:28.243Z,15.70
2018-09-19T01:29:08.064Z,15.70
2018-09-19T01:33:49.209Z,15.70
2018-09-19T01:38:29.591Z,15.50
2018-09-19T01:43:09.959Z,15.50
2018-09-19T01:47:49.940Z,15.40
2018-09-19T01:52:30.646Z,15.30
2018-09-19T01:57:10.510Z,15.20
2018-09-19T02:01:50.691Z,15.10
2018-09-19T02:06:30.759Z,15.00
2018-09-19T02:11:11.183Z,15.00
2018-09-19T02:15:51.010Z,14.90
2018-09-19T02:20:30.783Z,14.90
2018-09-19T02:25:10.736Z,14.80
2018-09-19T02:29:50.617Z,14.80
2018-09-19T02:34:30.494Z,14.80
2018-09-19T02:39:11.043Z,14.70
2018-09-19T02:43:52.134Z,14.70
2018-09-19T02:48:32.021Z,14.70
2018-09-19T02:53:11.920Z,14.70
2018-09-19T02:57:52.040Z,14.70
2018-09-19T03:02:31.883Z,14.60
2018-09-19T03:07:12.967Z,14.50
2018-09-19T03:11:52.720Z,14.50
2018-09-19T03:16:32.764Z,14.50
2018-09-19T03:21:12.916Z,14.50
2018-09-19T03:25:52.905Z,14.40
2018-09-19T03:30:32.901Z,14.30
2018-09-19T03:35:12.858Z,14.30
2018-09-19T03:39:53.205Z,14.20
2018-09-19T03:44:33.051Z,14.20
2018-09-19T03:49:13.873Z,14.10
2018-09-19T03:53:54.726Z,14.00
2018-09-19T03:58:35.080Z,14.00
2018-09-19T04:03:15.820Z,13.90
2018-09-19T04:07:55.836Z,13.90
2018-09-19T04:12:35.670Z,13.80
2018-09-19T04:17:15.688Z,13.80
2018-09-19T04:21:55.483Z,13.70
2018-09-19T04:26:35.318Z,13.70
2018-09-19T04:31:15.927Z,13.70
2018-09-19T04:35:55.724Z,13.70
2018-09-19T04:40:37.063Z,13.60
2018-09-19T04:45:17.700Z,13.70
2018-09-19T04:49:57.925Z,13.70
2018-09-19T04:54:37.985Z,13.60
2018-09-19T04:59:18.461Z,13.60
2018-09-19T05:03:58.469Z,13.50
2018-09-19T05:08:38.929Z,13.50
2018-09-19T05:13:20.683Z,13.60
2018-09-19T05:18:01.673Z,13.50
2018-09-19T05:22:42.193Z,13.50
2018-09-19T05:27:22.047Z,13.50
2018-09-19T05:32:01.998Z,13.50
2018-09-19T05:36:41.778Z,13.50
2018-09-19T05:41:23.084Z,13.60
2018-09-19T05:46:03.017Z,13.60
2018-09-19T05:50:43.090Z,13.70
2018-09-19T05:55:24.720Z,13.80
2018-09-19T06:00:05.631Z,13.90
2018-09-19T06:04:45.853Z,14.10
2018-09-19T06:09:25.613Z,14.30
2018-09-19T06:14:06.236Z,14.50
2018-09-19T06:18:46.664Z,14.70
2018-09-19T06:23:27.867Z,15.00
2018-09-19T06:28:07.704Z,15.20
2018-09-19T06:32:47.853Z,15.60
2018-09-19T06:37:28.346Z,15.80
2018-09-19T06:42:08.282Z,16.00
2018-09-19T06:46:48.470Z,16.30
2018-09-19T06:51:28.506Z,16.60
2018-09-19T06:56:09.724Z,17.00
2018-09-19T07:00:50.513Z,17.40
2018-09-19T07:05:30.548Z,17.90
2018-09-19T07:10:10.711Z,18.20
2018-09-19T07:14:50.290Z,18.60
2018-09-19T07:19:29.886Z,19.10
2018-09-19T07:24:11.023Z,20.20
2018-09-19T07:28:51.078Z,22.00
2018-09-19T07:33:31.780Z,23.70
2018-09-19T07:38:13.192Z,25.20
2018-09-19T07:42:53.117Z,26.30
2018-09-19T07:47:33.188Z,27.60
2018-09-19T07:52:13.677Z,28.60
2018-09-19T07:56:54.199Z,29.60
2018-09-19T08:01:34.404Z,30.30
2018-09-19T08:06:15.130Z,30.70
2018-09-19T08:10:54.885Z,31.20
2018-09-19T08:15:35.635Z,31.70
2018-09-19T08:20:16.226Z,32.00
2018-09-19T08:24:56.301Z,32.70
2018-09-19T08:29:36.823Z,33.40
2018-09-19T08:34:16.910Z,33.60
2018-09-19T08:38:57.020Z,34.20
2018-09-19T08:43:36.864Z,34.40
2018-09-19T08:48:17.628Z,35.30
2018-09-19T08:52:59.458Z,35.70
2018-09-19T08:57:39.855Z,35.80
2018-09-19T09:02:19.995Z,35.90
2018-09-19T09:07:00.595Z,36.80
2018-09-19T09:11:40.481Z,37.70
2018-09-19T09:16:21.004Z,38.20
2018-09-19T09:21:01.488Z,38.30
2018-09-19T09:25:42.106Z,38.30
2018-09-19T09:30:23.216Z,38.60
2018-09-19T09:35:03.796Z,39.20
2018-09-19T09:39:43.911Z,39.90
2018-09-19T09:44:23.676Z,40.40
2018-09-19T09:49:04.475Z,40.90
2018-09-19T09:53:44.393Z,41.40
2018-09-19T09:58:24.936Z,40.30
2018-09-19T10:03:05.395Z,39.10
2018-09-19T10:07:45.293Z,39.20
2018-09-19T10:12:25.184Z,39.50
2018-09-19T10:17:05.173Z,40.00
2018-09-19T10:21:44.908Z,41.20
2018-09-19T10:26:24.769Z,42.00
2018-09-19T10:31:05.278Z,42.00
2018-09-19T10:35:45.678Z,42.10
2018-09-19T10:40:26.529Z,42.10
2018-09-19T10:45:06.972Z,41.80
2018-09-19T10:49:46.984Z,41.90
2018-09-19T10:54:27.256Z,42.10
2018-09-19T10:59:06.968Z,42.20
2018-09-19T11:03:47.601Z,42.10
2018-09-19T11:08:29.007Z,42.30
2018-09-19T11:13:08.928Z,42.30
2018-09-19T11:17:48.808Z,41.90
2018-09-19T11:22:29.775Z,41.60
2018-09-19T11:27:09.756Z,42.00
2018-09-19T11:31:50.451Z,42.30
2018-09-19T11:36:30.358Z,42.20
2018-09-19T11:41:10.899Z,42.70
2018-09-19T11:45:50.628Z,43.30
2018-09-19T11:50:30.495Z,42.60
2018-09-19T11:55:10.305Z,42.20
2018-09-19T11:59:50.146Z,42.30
2018-09-19T12:04:30.168Z,42.70
2018-09-19T12:09:11.750Z,42.90
2018-09-19T12:13:51.587Z,43.00
2018-09-19T12:18:32.736Z,43.30
2018-09-19T12:23:13.649Z,43.30
2018-09-19T12:27:54.958Z,42.80
2018-09-19T12:32:35.149Z,42.30
2018-09-19T12:37:15.828Z,42.10
2018-09-19T12:41:56.463Z,40.90
2018-09-19T12:46:37.235Z,41.20
2018-09-19T12:51:17.716Z,41.50
2018-09-19T12:55:57.427Z,39.70
2018-09-19T13:00:37.937Z,39.40
2018-09-19T13:05:17.867Z,39.50
2018-09-19T13:09:59.004Z,39.00
2018-09-19T13:14:39.303Z,39.40
2018-09-19T13:19:18.988Z,39.60
2018-09-19T13:23:58.896Z,40.10
2018-09-19T13:28:38.800Z,40.40
2018-09-19T13:33:19.023Z,40.60
2018-09-19T13:37:59.893Z,40.50
2018-09-19T13:42:39.724Z,40.30
2018-09-19T13:47:19.507Z,39.00
2018-09-19T13:51:59.554Z,36.90
2018-09-19T13:56:39.484Z,36.20
2018-09-19T14:01:19.522Z,37.00
2018-09-19T14:06:00.169Z,36.90
2018-09-19T14:10:40.820Z,36.40
2018-09-19T14:15:20.516Z,35.70
2018-09-19T14:20:00.584Z,34.80
2018-09-19T14:24:40.316Z,34.60
2018-09-19T14:29:20.872Z,34.10
2018-09-19T14:34:00.892Z,33.50
2018-09-19T14:38:40.852Z,33.20
2018-09-19T14:43:21.200Z,33.10
2018-09-19T14:48:01.156Z,33.10
2018-09-19T14:52:40.954Z,32.90
2018-09-19T14:57:22.846Z,32.60
2018-09-19T15:02:02.893Z,32.20
2018-09-19T15:06:42.607Z,32.00
2018-09-19T15:11:22.612Z,31.70
2018-09-19T15:16:02.483Z,31.40
2018-09-19T15:20:43.277Z,31.10
2018-09-19T15:25:23.984Z,31.10
2018-09-19T15:30:04.275Z,31.00
2018-09-19T15:34:44.187Z,30.90
2018-09-19T15:39:24.695Z,30.70
2018-09-19T15:44:05.736Z,30.40
2018-09-19T15:48:46.017Z,30.10
2018-09-19T15:53:28.595Z,29.90
2018-09-19T15:58:08.668Z,29.80
2018-09-19T16:02:48.508Z,29.60
2018-09-19T16:07:30.231Z,29.50
2018-09-19T16:12:10.101Z,29.50
2018-09-19T16:16:50.040Z,29.40
2018-09-19T16:21:30.629Z,29.20
2018-09-19T16:26:10.685Z,29.10
2018-09-19T16:30:51.244Z,29.00
2018-09-19T16:35:31.943Z,28.70
2018-09-19T16:40:11.930Z,28.30
2018-09-19T16:44:52.497Z,28.10
2018-09-19T16:49:33.184Z,27.90
2018-09-19T16:54:13.825Z,27.40
2018-09-19T16:58:53.751Z,27.00
2018-09-19T17:03:34.432Z,26.60
2018-09-19T17:08:14.260Z,26.30
2018-09-19T17:12:54.154Z,26.00
2018-09-19T17:17:34.025Z,25.70
2018-09-19T17:22:13.907Z,25.50
2018-09-19T17:26:54.769Z,25.30
2018-09-19T17:31:34.360Z,25.10
2018-09-19T17:36:14.179Z,24.90
2018-09-19T17:40:54.341Z,24.60
2018-09-19T17:45:34.384Z,24.40
2018-09-19T17:50:14.444Z,24.30
2018-09-19T17:54:55.071Z,24.00
2018-09-19T17:59:35.017Z,23.80
2018-09-19T18:04:15.180Z,23.60
2018-09-19T18:08:55.245Z,23.40
2018-09-19T18:13:35.336Z,23.20
2018-09-19T18:18:15.448Z,23.00
2018-09-19T18:22:55.552Z,22.80
2018-09-19T18:27:36.129Z,22.60
2018-09-19T18:32:16.212Z,22.30
2018-09-19T18:36:56.266Z,22.10
2018-09-19T18:41:37.380Z,21.90
2018-09-19T18:46:17.356Z,21.70
2018-09-19T18:50:57.228Z,21.60
2018-09-19T18:55:37.743Z,21.40
2018-09-19T19:00:17.528Z,21.30
2018-09-19T19:04:57.433Z,21.20
2018-09-19T19:09:38.616Z,21.10
2018-09-19T19:14:19.188Z,21.00
2018-09-19T19:18:58.930Z,20.90
2018-09-19T19:23:38.773Z,20.70
2018-09-19T19:28:19.238Z,20.50
2018-09-19T19:32:59.343Z,20.40
2018-09-19T19:37:39.448Z,20.20
2018-09-19T19:42:19.874Z,20.00
2018-09-19T19:47:00.713Z,19.90
2018-09-19T19:51:40.745Z,19.90
2018-09-19T19:56:20.407Z,19.80
2018-09-19T20:01:02.207Z,19.70
2018-09-19T20:05:42.749Z,19.60
2018-09-19T20:10:22.860Z,19.50
2018-09-19T20:15:02.721Z,19.40
2018-09-19T20:19:42.527Z,19.40
2018-09-19T20:24:22.831Z,19.30
2018-09-19T20:29:09.886Z,19.30
2018-09-19T20:33:50.976Z,19.20
2018-09-19T20:38:31.092Z,19.10
2018-09-19T20:43:14.448Z,19.10
2018-09-19T20:47:59.824Z,19.00
2018-09-19T20:52:39.588Z,18.80
2018-09-19T20:57:20.062Z,18.80
2018-09-19T21:02:00.092Z,18.70
2018-09-19T21:06:40.369Z,18.50
2018-09-19T21:11:20.321Z,18.30
2018-09-19T21:16:00.499Z,18.20
2018-09-19T21:20:41.237Z,18.10
2018-09-19T21:25:21.051Z,18.00
2018-09-19T21:30:01.860Z,18.00
2018-09-19T21:34:41.602Z,17.90
2018-09-19T21:39:22.352Z,17.80
2018-09-19T21:44:03.956Z,17.70
2018-09-19T21:48:44.067Z,17.70
2018-09-19T21:53:25.191Z,17.70
2018-09-19T21:58:05.055Z,17.60
2018-09-19T22:02:45.655Z,17.50
2018-09-19T22:07:25.828Z,17.50
2018-09-19T22:12:09.512Z,17.40
2018-09-19T22:16:50.264Z,17.30
2018-09-19T22:21:30.155Z,17.30
2018-09-19T22:26:10.840Z,17.30
2018-09-19T22:30:51.295Z,17.20
2018-09-19T22:35:31.661Z,17.10
2018-09-19T22:40:14.940Z,16.90
2018-09-19T22:44:55.408Z,16.80
2018-09-19T22:49:35.711Z,16.80
2018-09-19T22:54:15.819Z,16.80
2018-09-19T22:58:56.928Z,16.80
2018-09-19T23:03:36.856Z,16.60
2018-09-19T23:08:16.800Z,16.60
2018-09-19T23:13:33.363Z,16.50
2018-09-19T23:18:13.254Z,16.50
2018-09-19T23:22:53.808Z,16.40
2018-09-19T23:27:33.976Z,16.40
2018-09-19T23:32:14.920Z,16.30
2018-09-19T23:36:54.538Z,16.30
2018-09-19T23:41:34.397Z,16.30
2018-09-19T23:46:15.381Z,16.10
2018-09-19T23:50:55.995Z,16.00
2018-09-19T23:55:35.925Z,15.90
